createdAt,value
2019-03-12T00:00:48.681Z,102960.85
2019-03-12T00:07:31.900Z,102971.65
2019-03-12T00:17:28.924Z,102969.55
2019-03-12T00:20:32.075Z,102969.08
2019-03-12T00:23:35.211Z,102969.60
2019-03-12T00:26:38.347Z,102976.41
2019-03-12T00:29:41.435Z,102975.56
2019-03-12T00:32:45.103Z,102977.17
2019-03-12T00:35:48.244Z,102975.88
2019-03-12T00:38:51.421Z,102979.68
2019-03-12T00:41:54.747Z,102984.94
2019-03-12T00:44:58.019Z,102983.14
2019-03-12T00:48:01.243Z,102978.64
2019-03-12T00:51:04.399Z,102978.69
2019-03-12T00:54:07.639Z,102979.71
2019-03-12T00:57:10.832Z,102980.85
2019-03-12T01:00:15.228Z,102981.37
2019-03-12T01:03:18.415Z,102988.70
2019-03-12T01:06:21.602Z,102993.67
2019-03-12T01:09:24.825Z,102998.38
2019-03-12T01:12:28.101Z,103001.14
2019-03-12T01:15:31.297Z,103006.07
2019-03-12T01:18:34.611Z,103006.13
2019-03-12T01:21:37.887Z,103007.72
2019-03-12T01:24:41.008Z,103010.05
2019-03-12T01:27:44.176Z,103001.34
2019-03-12T01:30:47.383Z,102991.34
2019-03-12T01:33:50.929Z,102990.70
2019-03-12T01:36:54.088Z,103003.62
2019-03-12T01:39:57.311Z,103011.27
2019-03-12T01:43:00.466Z,103018.18
2019-03-12T01:46:03.657Z,103022.50
2019-03-12T01:49:06.844Z,103020.48
2019-03-12T01:52:10.028Z,103019.58
2019-03-12T01:55:13.121Z,103017.38
2019-03-12T01:58:16.347Z,103018.48
2019-03-12T02:01:19.458Z,103014.00
2019-03-12T02:04:22.593Z,103010.45
2019-03-12T02:07:25.809Z,103013.86
2019-03-12T02:10:28.993Z,103021.92
2019-03-12T02:13:32.201Z,103033.45
2019-03-12T02:16:35.399Z,103032.95
2019-03-12T02:19:38.594Z,103030.09
2019-03-12T02:22:41.781Z,103029.16
2019-03-12T02:25:44.962Z,103034.90
2019-03-12T02:28:48.148Z,103031.60
2019-03-12T02:31:51.345Z,103027.03
2019-03-12T02:34:54.446Z,103022.98
2019-03-12T02:37:57.643Z,103018.68
2019-03-12T02:41:00.832Z,103018.05
2019-03-12T02:44:04.052Z,103015.52
2019-03-12T02:47:07.222Z,103008.48
2019-03-12T02:50:10.947Z,103011.80
2019-03-12T02:53:14.131Z,103014.41
2019-03-12T02:56:17.332Z,103015.74
2019-03-12T02:59:20.610Z,103020.83
2019-03-12T03:02:23.700Z,103019.00
2019-03-12T03:05:26.896Z,103022.24
2019-03-12T03:08:32.200Z,103018.15
2019-03-12T03:11:35.389Z,103019.20
2019-03-12T03:14:39.621Z,103011.64
2019-03-12T03:17:42.739Z,103008.49
2019-03-12T03:20:45.953Z,103000.64
2019-03-12T03:23:49.145Z,103004.76
2019-03-12T03:26:52.343Z,103004.53
2019-03-12T03:29:55.538Z,103010.01
2019-03-12T03:32:58.756Z,103007.98
2019-03-12T03:36:01.903Z,103011.83
2019-03-12T03:39:05.950Z,103007.93
2019-03-12T03:42:09.138Z,103008.92
2019-03-12T03:45:12.380Z,103010.25
2019-03-12T03:48:15.557Z,103011.46
2019-03-12T03:51:18.707Z,103007.14
2019-03-12T03:54:21.906Z,103005.07
2019-03-12T03:57:25.108Z,103005.93
2019-03-12T04:00:28.295Z,102998.89
2019-03-12T04:03:31.490Z,102999.22
2019-03-12T04:06:34.773Z,102997.20
2019-03-12T04:09:37.880Z,102989.84
2019-03-12T04:12:41.025Z,102982.75
2019-03-12T04:15:44.153Z,102983.45
2019-03-12T04:18:47.372Z,102964.15
2019-03-12T04:21:50.661Z,102961.42
2019-03-12T04:24:59.843Z,102964.56
2019-03-12T04:28:02.992Z,102958.49
2019-03-12T04:31:06.180Z,102958.20
2019-03-12T04:34:12.830Z,102958.36
2019-03-12T04:37:21.811Z,102959.19
2019-03-12T04:40:28.035Z,102955.69
2019-03-12T04:43:31.346Z,102953.75
2019-03-12T04:46:34.535Z,102952.79
2019-03-12T04:49:37.740Z,102953.01
2019-03-12T04:52:40.938Z,102948.80
2019-03-12T04:55:44.131Z,102941.06
2019-03-12T04:58:47.343Z,102951.96
2019-03-12T05:01:50.616Z,102950.53
2019-03-12T05:04:53.812Z,102944.77
2019-03-12T05:07:57.007Z,102935.21
2019-03-12T05:11:00.157Z,102936.32
2019-03-12T05:14:22.795Z,102924.29
2019-03-12T05:17:28.140Z,102929.30
2019-03-12T05:20:31.377Z,102923.60
2019-03-12T05:23:34.574Z,102922.13
2019-03-12T05:26:37.864Z,102931.57
2019-03-12T05:29:40.972Z,102929.47
2019-03-12T05:32:44.259Z,102940.15
2019-03-12T05:35:47.468Z,102929.62
2019-03-12T05:38:50.655Z,102928.47
2019-03-12T05:41:53.843Z,102921.03
2019-03-12T05:44:57.101Z,102918.98
2019-03-12T05:48:00.144Z,102909.72
2019-03-12T05:51:03.341Z,102912.91
2019-03-12T05:54:06.516Z,102915.64
2019-03-12T05:57:10.153Z,102922.68
2019-03-12T06:00:14.303Z,102917.45
2019-03-12T06:03:17.436Z,102916.77
2019-03-12T06:06:20.620Z,102922.17
2019-03-12T06:09:30.278Z,102918.10
2019-03-12T06:12:27.728Z,102919.16
2019-03-12T06:15:30.914Z,102914.96
2019-03-12T06:18:34.128Z,102912.23
2019-03-12T06:21:37.324Z,102911.48
2019-03-12T06:24:40.539Z,102913.19
2019-03-12T06:27:43.720Z,102913.24
2019-03-12T06:30:52.980Z,102907.30
2019-03-12T06:34:00.631Z,102903.50
2019-03-12T06:37:08.011Z,102905.03
2019-03-12T06:40:16.418Z,102900.25
2019-03-12T06:43:26.839Z,102898.56
2019-03-12T06:46:35.388Z,102901.83
2019-03-12T06:49:46.165Z,102898.28
2019-03-12T06:52:53.463Z,102890.10
2019-03-12T06:56:05.809Z,102883.01
2019-03-12T06:59:20.300Z,102875.99
2019-03-12T07:02:27.753Z,102877.90
2019-03-12T07:05:36.235Z,102874.37
2019-03-12T07:08:45.569Z,102874.63
2019-03-12T07:11:54.708Z,102866.13
2019-03-12T07:15:06.071Z,102851.77
2019-03-12T07:18:17.468Z,102849.32
2019-03-12T07:21:25.752Z,102839.51
2019-03-12T07:24:36.096Z,102841.76
2019-03-12T07:27:45.002Z,102835.11
2019-03-12T07:31:56.900Z,102824.72
2019-03-12T07:35:05.426Z,102823.81
2019-03-12T07:38:31.107Z,102814.21
2019-03-12T07:41:42.470Z,102804.39
2019-03-12T07:44:50.924Z,102805.12
2019-03-12T07:48:15.519Z,102796.04
2019-03-12T07:51:30.993Z,102797.45
2019-03-12T07:54:53.348Z,102786.21
2019-03-12T07:59:08.992Z,102783.10
2019-03-12T08:02:15.282Z,102773.87
2019-03-12T08:05:23.992Z,102765.60
2019-03-12T08:09:05.987Z,102768.28
2019-03-12T08:12:16.230Z,102758.95
2019-03-12T08:15:24.931Z,102746.27
2019-03-12T08:18:35.474Z,102746.05
2019-03-12T08:21:41.599Z,102744.72
2019-03-12T08:24:53.902Z,102737.75
2019-03-12T08:28:02.260Z,102727.50
2019-03-12T08:31:10.775Z,102718.26
2019-03-12T08:34:19.432Z,102708.94
2019-03-12T08:37:27.766Z,102695.01
2019-03-12T08:40:38.212Z,102688.00
2019-03-12T08:43:48.299Z,102685.49
2019-03-12T08:46:56.972Z,102681.25
2019-03-12T08:50:10.327Z,102683.14
2019-03-12T08:53:20.131Z,102671.79
2019-03-12T08:56:27.469Z,102667.68
2019-03-12T08:59:39.691Z,102661.84
2019-03-12T09:02:47.930Z,102649.92
2019-03-12T09:05:56.136Z,102650.97
2019-03-12T09:09:05.477Z,102634.87
2019-03-12T09:12:12.822Z,102639.71
2019-03-12T09:16:19.160Z,102622.50
2019-03-12T09:21:30.608Z,102613.38
2019-03-12T09:24:38.000Z,102592.54
2019-03-12T09:27:57.570Z,102585.55
2019-03-12T09:31:08.774Z,102589.23
2019-03-12T09:34:27.020Z,102586.72
2019-03-12T09:37:34.407Z,102582.85
2019-03-12T09:40:48.772Z,102577.02
2019-03-12T09:43:58.033Z,102565.61
2019-03-12T09:47:12.123Z,102564.27
2019-03-12T09:50:20.427Z,102556.39
2019-03-12T09:53:27.737Z,102541.62
2019-03-12T09:56:35.130Z,102533.76
2019-03-12T09:59:46.300Z,102533.14
2019-03-12T10:03:00.714Z,102527.60
2019-03-12T10:06:08.068Z,102513.39
2019-03-12T10:09:18.031Z,102510.28
2019-03-12T10:13:00.990Z,102502.12
2019-03-12T10:16:13.286Z,102501.01
2019-03-12T10:19:20.978Z,102481.33
2019-03-12T10:22:28.322Z,102476.76
2019-03-12T10:25:35.637Z,102458.08
2019-03-12T10:28:44.303Z,102461.56
2019-03-12T10:31:56.585Z,102450.87
2019-03-12T10:35:03.957Z,102449.85
2019-03-12T10:38:26.227Z,102436.53
2019-03-12T10:41:34.596Z,102434.43
2019-03-12T10:44:41.912Z,102433.77
2019-03-12T10:47:45.715Z,102431.81
2019-03-12T10:50:48.855Z,102420.30
2019-03-12T10:53:52.049Z,102412.25
2019-03-12T10:56:55.230Z,102408.99
2019-03-12T10:59:58.420Z,102401.84
2019-03-12T11:03:02.061Z,102401.76
2019-03-12T11:06:05.220Z,102392.00
2019-03-12T11:09:08.584Z,102392.76
2019-03-12T11:12:11.691Z,102385.16
2019-03-12T11:15:14.921Z,102379.73
2019-03-12T11:18:18.116Z,102369.18
2019-03-12T11:21:21.400Z,102371.03
2019-03-12T11:24:24.597Z,102360.51
2019-03-12T11:27:27.781Z,102359.69
2019-03-12T11:30:30.984Z,102351.45
2019-03-12T11:33:34.210Z,102326.08
2019-03-12T11:36:37.487Z,102322.62
2019-03-12T11:39:40.926Z,102315.10
2019-03-12T11:42:43.868Z,102306.04
2019-03-12T11:45:47.054Z,102300.80
2019-03-12T11:48:50.245Z,102293.77
2019-03-12T11:51:53.502Z,102286.28
2019-03-12T11:54:56.696Z,102268.82
2019-03-12T11:58:00.653Z,102253.43
2019-03-12T12:01:05.427Z,102238.62
2019-03-12T12:04:08.601Z,102240.21
2019-03-12T12:07:11.783Z,102219.94
2019-03-12T12:10:15.080Z,102216.73
2019-03-12T12:13:19.246Z,102206.84
2019-03-12T12:16:23.134Z,102203.33
2019-03-12T12:19:26.298Z,102196.51
2019-03-12T12:22:29.616Z,102181.44
2019-03-12T12:25:32.793Z,102172.80
2019-03-12T12:28:36.028Z,102161.98
2019-03-12T12:31:39.268Z,102145.46
2019-03-12T12:34:42.492Z,102137.31
2019-03-12T12:37:45.677Z,102134.48
2019-03-12T12:40:48.892Z,102118.17
2019-03-12T12:43:52.052Z,102102.56
2019-03-12T12:46:55.250Z,102102.94
2019-03-12T12:49:58.429Z,102086.25
2019-03-12T12:53:01.640Z,102082.29
2019-03-12T12:56:04.845Z,102076.74
2019-03-12T12:59:08.027Z,102064.05
2019-03-12T13:02:11.217Z,102068.74
2019-03-12T13:05:14.710Z,102049.24
2019-03-12T13:08:17.799Z,102036.53
2019-03-12T13:11:20.876Z,102036.26
2019-03-12T13:14:24.120Z,102014.72
2019-03-12T13:17:27.319Z,102007.51
2019-03-12T13:20:30.485Z,101995.21
2019-03-12T13:23:36.009Z,101973.62
2019-03-12T13:26:36.882Z,101965.10
2019-03-12T13:29:40.133Z,101955.29
2019-03-12T13:32:43.258Z,101944.84
2019-03-12T13:35:49.281Z,101935.56
2019-03-12T13:38:49.787Z,101936.08
2019-03-12T13:41:52.996Z,101922.98
2019-03-12T13:44:56.354Z,101911.52
2019-03-12T13:47:59.475Z,101907.04
2019-03-12T13:51:02.868Z,101895.79
2019-03-12T13:54:09.483Z,101883.47
2019-03-12T13:57:09.355Z,101870.16
2019-03-12T14:00:15.319Z,101869.80
2019-03-12T14:03:18.413Z,101850.65
2019-03-12T14:06:21.572Z,101849.15
2019-03-12T14:09:24.896Z,101840.34
2019-03-12T14:12:28.109Z,101832.52
2019-03-12T14:15:31.230Z,101812.23
2019-03-12T14:18:34.384Z,101795.71
2019-03-12T14:21:40.020Z,101788.82
2019-03-12T14:24:43.872Z,101780.03
2019-03-12T14:27:47.053Z,101770.05
2019-03-12T14:30:50.224Z,101770.67
2019-03-12T14:33:53.408Z,101762.49
2019-03-12T14:36:56.603Z,101757.89
2019-03-12T14:39:59.793Z,101748.45
2019-03-12T14:43:02.997Z,101740.10
2019-03-12T14:46:06.176Z,101726.98
2019-03-12T14:49:09.980Z,101722.44
2019-03-12T14:52:19.177Z,101711.42
2019-03-12T14:55:22.307Z,101701.29
2019-03-12T14:58:25.506Z,101692.47
2019-03-12T15:01:28.705Z,101692.30
2019-03-12T15:04:31.794Z,101682.89
2019-03-12T15:07:34.996Z,101680.94
2019-03-12T15:10:38.189Z,101675.41
2019-03-12T15:13:41.369Z,101658.97
2019-03-12T15:16:44.465Z,101656.35
2019-03-12T15:19:47.563Z,101648.84
2019-03-12T15:22:50.661Z,101633.83
2019-03-12T15:25:53.843Z,101618.67
2019-03-12T15:28:57.039Z,101604.31
2019-03-12T15:32:04.479Z,101599.54
2019-03-12T15:35:03.447Z,101588.47
2019-03-12T15:38:06.631Z,101571.01
2019-03-12T15:41:09.816Z,101566.94
2019-03-12T15:44:12.895Z,101557.43
2019-03-12T15:47:16.000Z,101558.07
2019-03-12T15:50:19.160Z,101539.68
2019-03-12T15:53:22.307Z,101536.71
2019-03-12T15:56:25.506Z,101533.64
2019-03-12T15:59:28.687Z,101524.49
2019-03-12T16:02:31.883Z,101519.55
2019-03-12T16:05:35.056Z,101506.62
2019-03-12T16:08:39.179Z,101498.30
2019-03-12T16:11:42.426Z,101487.73
2019-03-12T16:14:45.828Z,101481.95
2019-03-12T16:17:48.991Z,101473.30
2019-03-12T16:20:52.131Z,101467.57
2019-03-12T16:23:55.310Z,101445.37
2019-03-12T16:26:58.659Z,101439.61
2019-03-12T16:30:01.907Z,101438.36
2019-03-12T16:33:05.477Z,101426.87
2019-03-12T16:36:08.658Z,101408.24
2019-03-12T16:39:11.851Z,101398.55
2019-03-12T16:42:14.941Z,101388.78
2019-03-12T16:45:18.247Z,101386.51
2019-03-12T16:48:21.423Z,101378.85
2019-03-12T16:51:24.635Z,101367.46
2019-03-12T16:54:27.860Z,101354.04
2019-03-12T16:57:31.122Z,101350.12
2019-03-12T17:00:34.950Z,101331.41
2019-03-12T17:03:38.239Z,101321.07
2019-03-12T17:06:41.327Z,101317.38
2019-03-12T17:09:44.550Z,101299.00
2019-03-12T17:12:47.857Z,101294.31
2019-03-12T17:15:54.600Z,101290.35
2019-03-12T17:18:54.321Z,101292.86
2019-03-12T17:21:57.505Z,101284.44
2019-03-12T17:25:00.628Z,101273.99
2019-03-12T17:28:03.904Z,101262.03
2019-03-12T17:31:07.090Z,101256.26
2019-03-12T17:34:10.281Z,101255.43
2019-03-12T17:37:13.565Z,101244.24
2019-03-12T17:40:18.451Z,101236.97
2019-03-12T17:43:21.612Z,101233.10
2019-03-12T17:46:24.816Z,101226.96
2019-03-12T17:49:27.997Z,101217.40
2019-03-12T17:52:31.186Z,101214.32
2019-03-12T17:55:34.281Z,101213.04
2019-03-12T17:58:37.475Z,101210.97
2019-03-12T18:01:40.702Z,101213.75
2019-03-12T18:04:43.868Z,101219.93
2019-03-12T18:07:47.077Z,101217.17
2019-03-12T18:10:50.152Z,101214.22
2019-03-12T18:13:53.347Z,101204.34
2019-03-12T18:16:56.567Z,101204.12
2019-03-12T18:19:59.852Z,101189.14
2019-03-12T18:23:03.062Z,101173.34
2019-03-12T18:26:08.361Z,101174.77
2019-03-12T18:29:11.928Z,101158.44
2019-03-12T18:32:15.061Z,101151.25
2019-03-12T18:35:18.403Z,101142.54
2019-03-12T18:38:21.662Z,101137.40
2019-03-12T18:41:24.873Z,101122.12
2019-03-12T18:44:28.015Z,101127.64
2019-03-12T18:47:31.170Z,101125.82
2019-03-12T18:50:34.378Z,101117.54
2019-03-12T18:53:37.569Z,101108.93
2019-03-12T18:56:40.759Z,101113.60
2019-03-12T18:59:43.926Z,101117.99
2019-03-12T19:02:47.067Z,101104.20
2019-03-12T19:05:50.196Z,101104.84
2019-03-12T19:08:53.408Z,101091.16
2019-03-12T19:11:56.636Z,101072.01
2019-03-12T19:14:59.801Z,101071.25
2019-03-12T19:18:03.145Z,101062.66
2019-03-12T19:21:06.317Z,101054.34
2019-03-12T19:24:09.515Z,101045.17
2019-03-12T19:27:12.687Z,101053.34
2019-03-12T19:30:15.975Z,101043.17
2019-03-12T19:33:19.203Z,101032.03
2019-03-12T19:36:22.464Z,101032.52
2019-03-12T19:39:25.664Z,101029.82
2019-03-12T19:42:28.865Z,101018.71
2019-03-12T19:45:32.006Z,101017.76
2019-03-12T19:48:35.147Z,101010.38
2019-03-12T19:51:38.374Z,100990.31
2019-03-12T19:54:41.898Z,100985.74
2019-03-12T19:57:45.072Z,100977.86
2019-03-12T20:00:48.498Z,100971.30
2019-03-12T20:03:51.620Z,100960.14
2019-03-12T20:06:55.545Z,100946.89
2019-03-12T20:10:15.030Z,100955.86
2019-03-12T20:13:30.336Z,100941.19
2019-03-12T20:16:44.370Z,100912.27
2019-03-12T20:20:19.768Z,100900.93
2019-03-12T20:23:46.856Z,100894.58
2019-03-12T20:29:11.271Z,100881.70
2019-03-12T20:32:27.393Z,100861.52
2019-03-12T20:35:46.754Z,100864.68
2019-03-12T20:39:11.125Z,100864.79
2019-03-12T20:42:23.892Z,100858.58
2019-03-12T20:46:05.047Z,100849.93
2019-03-12T20:49:18.247Z,100856.08
2019-03-12T20:52:35.299Z,100839.28
2019-03-12T20:55:57.407Z,100836.53
2019-03-12T20:59:11.583Z,100827.70
2019-03-12T21:02:42.686Z,100817.85
2019-03-12T21:06:03.381Z,100810.92
2019-03-12T21:11:22.609Z,100801.67
2019-03-12T21:14:46.779Z,100791.38
2019-03-12T21:18:05.944Z,100787.53
2019-03-12T21:21:33.956Z,100784.14
2019-03-12T21:24:50.948Z,100777.46
2019-03-12T21:28:07.367Z,100775.37
2019-03-12T21:31:10.562Z,100764.51
2019-03-12T21:34:13.823Z,100759.80
2019-03-12T21:37:17.038Z,100763.49
2019-03-12T21:40:20.224Z,100751.57
2019-03-12T21:43:23.427Z,100749.10
2019-03-12T21:46:26.627Z,100754.60
2019-03-12T21:49:29.810Z,100770.17
2019-03-12T21:52:33.009Z,100770.13
2019-03-12T21:55:37.736Z,100757.60
2019-03-12T21:58:39.537Z,100759.84
2019-03-12T22:01:42.683Z,100755.13
2019-03-12T22:04:45.930Z,100743.46
2019-03-12T22:07:49.079Z,100750.97
2019-03-12T22:10:52.163Z,100744.89
2019-03-12T22:13:55.481Z,100732.84
2019-03-12T22:16:59.331Z,100737.96
2019-03-12T22:20:02.626Z,100733.33
2019-03-12T22:23:10.750Z,100736.85
2019-03-12T22:26:13.926Z,100736.72
2019-03-12T22:29:17.167Z,100748.00
2019-03-12T22:32:20.366Z,100741.79
2019-03-12T22:35:23.579Z,100737.04
2019-03-12T22:38:26.753Z,100734.33
2019-03-12T22:41:29.967Z,100734.33
2019-03-12T22:44:33.157Z,100741.84
2019-03-12T22:47:36.310Z,100743.72
2019-03-12T22:50:39.484Z,100745.61
2019-03-12T22:53:42.635Z,100762.69
2019-03-12T22:56:45.802Z,100762.77
2019-03-12T22:59:48.999Z,100768.34
2019-03-12T23:02:52.201Z,100767.74
2019-03-12T23:05:55.415Z,100765.32
2019-03-12T23:08:58.609Z,100756.75
2019-03-12T23:12:01.925Z,100772.78
2019-03-12T23:15:05.899Z,100770.38
2019-03-12T23:18:09.164Z,100774.92
2019-03-12T23:21:12.415Z,100802.88
2019-03-12T23:24:15.580Z,100823.29
2019-03-12T23:27:18.784Z,100813.31
2019-03-12T23:30:21.981Z,100820.13
2019-03-12T23:33:25.099Z,100841.68
2019-03-12T23:36:28.268Z,100846.79
2019-03-12T23:39:31.480Z,100867.76
2019-03-12T23:42:34.672Z,100882.38
2019-03-12T23:45:37.869Z,100898.63
2019-03-12T23:48:41.049Z,100908.65
2019-03-12T23:51:44.219Z,100928.71
2019-03-12T23:54:48.149Z,100944.11
2019-03-12T23:57:51.331Z,100970.80
